Time;durP1;ratioP1;P1;durP2;ratioP2;P2;SDS_P1;SDS_P2;PMS_P1;PMS_P2;Temp;Humidity;BMP_temperature;BMP_pressure;BME280_temperature;BME280_humidity;BME280_pressure;Samples;Min_cycle;Max_cycle;Signal;HPM_P1;HPM_P2
2021/10/21 00:01:45;;;;;;;;;1.67;0.00;;;;;16.42;55.97;99329.25;5049442;28;45477;-72
2021/10/21 00:04:11;;;;;;;;;0.00;0.00;;;;;16.44;56.28;99340.72;5035475;28;48157;-73
2021/10/21 00:06:36;;;;;;;;;5.00;0.00;;;;;16.45;56.43;99318.47;5044478;28;46068;-72
2021/10/21 00:09:02;;;;;;;;;0.67;0.00;;;;;16.44;56.07;99316.72;5056570;28;55660;-72
2021/10/21 00:11:27;;;;;;;;;0.00;0.00;;;;;16.42;55.03;99319.47;5057146;28;45412;-72
2021/10/21 00:13:53;;;;;;;;;4.33;1.00;;;;;16.42;56.39;99306.16;5052732;28;51735;-72
2021/10/21 00:16:18;;;;;;;;;2.00;1.00;;;;;16.42;56.25;99298.16;5053605;28;47334;-72
2021/10/21 00:18:43;;;;;;;;;1.33;1.33;;;;;16.46;55.61;99315.78;5056955;28;45311;-72
2021/10/21 00:21:09;;;;;;;;;2.67;2.00;;;;;16.47;55.64;99316.63;5050624;28;45575;-72
2021/10/21 00:23:34;;;;;;;;;3.33;0.67;;;;;16.42;54.79;99342.56;5055744;28;51224;-73
2021/10/21 00:26:06;;;;;;;;;1.00;0.00;;;;;16.48;54.95;99343.22;5049058;28;61130;-72
2021/10/21 00:28:32;;;;;;;;;2.67;1.00;;;;;16.45;55.82;99330.00;5050087;28;45463;-72
2021/10/21 00:30:57;;;;;;;;;5.00;0.00;;;;;16.50;55.17;99361.78;5057350;28;45295;-72
2021/10/21 00:33:22;;;;;;;;;4.33;0.67;;;;;16.46;55.77;99334.41;5052964;28;45331;-73
2021/10/21 00:35:48;;;;;;;;;0.67;0.00;;;;;16.48;54.95;99334.34;5056210;28;54164;-72
2021/10/21 00:38:13;;;;;;;;;3.33;0.00;;;;;16.45;55.50;99340.66;5056607;28;45469;-72
2021/10/21 00:40:38;;;;;;;;;2.00;1.00;;;;;16.42;54.93;99339.91;5048976;28;52012;-72
2021/10/21 00:43:04;;;;;;;;;0.33;0.00;;;;;16.42;55.54;99351.44;5056397;28;52238;-72
2021/10/21 00:45:30;;;;;;;;;3.00;0.00;;;;;16.42;54.81;99363.88;5033362;28;46621;-72
2021/10/21 00:47:56;;;;;;;;;2.67;0.00;;;;;16.40;55.72;99357.72;5049727;28;45484;-72
2021/10/21 00:50:21;;;;;;;;;3.00;0.00;;;;;16.40;55.48;99368.38;5054412;28;45746;-72
2021/10/21 00:52:47;;;;;;;;;1.33;0.00;;;;;16.38;55.41;99346.28;5049725;28;45748;-72
2021/10/21 00:55:12;;;;;;;;;3.00;0.00;;;;;16.32;55.82;99341.16;5056891;28;46397;-73
2021/10/21 00:57:38;;;;;;;;;2.00;0.00;;;;;16.32;55.73;99350.03;5038549;28;45365;-73
2021/10/21 01:00:04;;;;;;;;;2.67;0.00;;;;;16.32;55.76;99397.97;5039309;28;45414;-72
2021/10/21 01:02:29;;;;;;;;;0.33;0.00;;;;;16.23;56.06;99385.84;5037414;28;45656;-72
2021/10/21 01:04:55;;;;;;;;;0.67;0.00;;;;;16.17;57.51;99394.03;5051295;28;62291;-72
2021/10/21 01:07:20;;;;;;;;;4.00;0.00;;;;;16.13;58.68;99405.72;5055213;28;59071;-73
2021/10/21 01:09:46;;;;;;;;;2.00;0.00;;;;;16.08;59.28;99430.78;5056306;28;54051;-72
2021/10/21 01:12:12;;;;;;;;;0.00;0.00;;;;;15.98;59.05;99443.53;5054462;28;45430;-72
2021/10/21 01:14:37;;;;;;;;;1.00;0.00;;;;;15.90;58.42;99449.09;5053511;28;47017;-73
2021/10/21 01:17:03;;;;;;;;;1.00;0.00;;;;;15.81;58.17;99430.75;5049692;28;45487;-72
2021/10/21 01:19:28;;;;;;;;;0.67;0.00;;;;;15.84;57.97;99421.81;5055574;28;56547;-72
2021/10/21 01:21:54;;;;;;;;;0.00;0.00;;;;;15.77;57.61;99444.25;5052714;28;45554;-72
2021/10/21 01:24:19;;;;;;;;;1.00;0.00;;;;;15.76;57.84;99461.13;5053167;28;46563;-72
2021/10/21 01:26:46;;;;;;;;;0.67;0.00;;;;;15.79;58.00;99461.91;5056217;28;45456;-72
2021/10/21 01:29:12;;;;;;;;;0.00;0.00;;;;;15.76;56.56;99479.75;5052346;28;45214;-72
2021/10/21 01:31:39;;;;;;;;;1.00;0.00;;;;;15.73;56.66;99459.44;5037473;28;45462;-72
2021/10/21 01:34:08;;;;;;;;;0.67;0.00;;;;;15.76;56.28;99474.41;5047244;28;46530;-72
2021/10/21 01:36:33;;;;;;;;;0.00;0.00;;;;;15.71;56.43;99502.06;5053933;28;45604;-72
2021/10/21 01:38:59;;;;;;;;;0.00;0.00;;;;;15.67;56.35;99526.16;5049485;28;45538;-72
2021/10/21 01:41:24;;;;;;;;;0.00;0.00;;;;;15.60;55.83;99497.94;5051744;28;55538;-72
2021/10/21 01:43:50;;;;;;;;;1.67;0.00;;;;;15.62;56.45;99533.38;5055899;28;47309;-72
2021/10/21 01:46:15;;;;;;;;;1.00;0.00;;;;;15.62;56.37;99522.72;5055370;28;56233;-72
2021/10/21 01:48:41;;;;;;;;;0.33;0.00;;;;;15.56;56.34;99534.44;5054900;28;45415;-72
2021/10/21 01:51:06;;;;;;;;;0.00;0.00;;;;;15.57;57.37;99549.47;5055684;28;45614;-72
2021/10/21 01:53:31;;;;;;;;;0.00;0.00;;;;;15.44;57.19;99583.53;5037060;28;48506;-72
2021/10/21 01:55:57;;;;;;;;;0.67;0.00;;;;;15.41;57.57;99580.09;5035767;28;45507;-72
2021/10/21 01:58:22;;;;;;;;;0.00;0.00;;;;;15.36;57.88;99579.38;5047005;28;53649;-72
2021/10/21 02:00:47;;;;;;;;;2.00;0.00;;;;;15.35;57.11;99573.19;5055589;28;45521;-72
2021/10/21 02:03:13;;;;;;;;;0.00;0.00;;;;;15.28;56.86;99566.28;5053303;28;58441;-72
2021/10/21 02:05:38;;;;;;;;;2.00;0.00;;;;;15.31;57.22;99560.88;5057557;28;57523;-72
2021/10/21 02:08:04;;;;;;;;;0.00;0.00;;;;;15.30;56.29;99548.50;5059031;28;51100;-72
2021/10/21 02:10:29;;;;;;;;;0.00;0.00;;;;;15.27;55.71;99559.22;5059124;28;45331;-73
2021/10/21 02:12:54;;;;;;;;;1.00;0.00;;;;;15.29;56.14;99561.84;5058870;28;45818;-72
2021/10/21 02:15:20;;;;;;;;;1.00;0.00;;;;;15.26;56.17;99588.53;5058599;28;45677;-73
2021/10/21 02:17:46;;;;;;;;;0.67;0.00;;;;;15.21;55.72;99607.25;5054540;28;49789;-72
2021/10/21 02:20:11;;;;;;;;;1.00;0.00;;;;;15.19;55.55;99628.59;5059737;28;45280;-72
2021/10/21 02:22:37;;;;;;;;;0.00;0.00;;;;;15.17;55.55;99630.38;5057267;28;46289;-72
2021/10/21 02:25:04;;;;;;;;;0.00;0.00;;;;;15.06;55.33;99640.44;5052442;28;45372;-73
2021/10/21 02:27:30;;;;;;;;;0.00;0.00;;;;;15.09;55.43;99653.66;5057428;28;45299;-73
2021/10/21 02:29:55;;;;;;;;;4.00;0.00;;;;;15.06;55.40;99672.34;5058770;28;45545;-72
2021/10/21 02:32:20;;;;;;;;;0.00;0.00;;;;;15.01;55.57;99714.13;5054357;28;60121;-72
2021/10/21 02:34:46;;;;;;;;;0.00;0.00;;;;;15.04;55.56;99697.25;5055078;28;57634;-72
2021/10/21 02:37:11;;;;;;;;;1.00;0.00;;;;;15.04;55.76;99695.44;5052491;28;47729;-72
2021/10/21 02:39:36;;;;;;;;;1.00;0.00;;;;;15.04;55.88;99723.81;5052267;28;51887;-72
2021/10/21 02:42:02;;;;;;;;;0.00;0.00;;;;;15.01;56.29;99742.50;5058042;28;60803;-72
2021/10/21 02:44:27;;;;;;;;;2.00;0.00;;;;;15.01;55.83;99734.50;5056937;28;45131;-72
2021/10/21 02:46:53;;;;;;;;;0.00;0.00;;;;;14.98;56.22;99774.47;5058636;28;45343;-72
2021/10/21 02:49:18;;;;;;;;;0.00;0.00;;;;;15.00;56.61;99770.88;5047571;28;47036;-72
2021/10/21 02:51:44;;;;;;;;;1.00;0.00;;;;;14.98;55.92;99786.00;5055756;28;47328;-72
2021/10/21 02:54:09;;;;;;;;;0.00;0.00;;;;;14.98;56.44;99798.41;5058005;28;55498;-72
2021/10/21 02:56:35;;;;;;;;;0.67;0.00;;;;;14.95;55.96;99815.28;5048334;28;45299;-72
2021/10/21 02:59:00;;;;;;;;;0.33;0.00;;;;;14.90;56.68;99812.72;5058581;28;45609;-72
2021/10/21 03:01:25;;;;;;;;;1.00;0.00;;;;;14.85;56.66;99835.88;5056959;28;46484;-72
2021/10/21 03:03:51;;;;;;;;;1.67;0.00;;;;;14.77;57.83;99871.53;5055586;28;56066;-72
2021/10/21 03:06:16;;;;;;;;;0.33;0.00;;;;;14.75;57.63;99860.91;5058773;28;45606;-72
2021/10/21 03:08:41;;;;;;;;;0.67;0.00;;;;;14.77;57.38;99885.69;5058422;28;45231;-72
2021/10/21 03:11:07;;;;;;;;;3.00;0.00;;;;;14.74;57.07;99901.69;5056317;28;60257;-72
2021/10/21 03:13:32;;;;;;;;;0.00;0.00;;;;;14.75;57.21;99927.34;5054361;28;59679;-72
2021/10/21 03:15:58;;;;;;;;;1.00;0.00;;;;;14.72;57.83;99959.31;5057048;28;53246;-72
2021/10/21 03:18:23;;;;;;;;;3.00;0.00;;;;;14.68;58.26;99986.84;5037178;28;45452;-72
2021/10/21 03:20:48;;;;;;;;;0.00;0.00;;;;;14.56;58.22;99971.13;5044450;28;58784;-72
2021/10/21 03:23:14;;;;;;;;;0.33;0.00;;;;;14.52;57.71;100034.06;5057554;28;45287;-72
2021/10/21 03:25:39;;;;;;;;;0.67;0.67;;;;;14.41;58.63;100034.22;5050357;28;45230;-71
2021/10/21 03:28:05;;;;;;;;;2.00;0.00;;;;;14.36;58.56;100049.38;5057488;28;48877;-72
2021/10/21 03:30:30;;;;;;;;;1.00;0.00;;;;;14.27;59.64;100091.13;5050969;28;46288;-71
2021/10/21 03:32:55;;;;;;;;;1.00;0.00;;;;;14.28;60.32;100128.28;5056448;28;57959;-71
2021/10/21 03:35:21;;;;;;;;;1.00;0.00;;;;;14.19;61.38;100109.84;5055881;28;54908;-72
2021/10/21 03:37:47;;;;;;;;;3.33;0.00;;;;;13.97;62.35;100167.69;5058422;28;45476;-72
2021/10/21 03:40:12;;;;;;;;;3.00;0.00;;;;;13.95;62.30;100181.84;5046254;28;55757;-72
2021/10/21 03:42:38;;;;;;;;;0.00;0.00;;;;;13.78;63.86;100217.44;5036841;28;45421;-72
2021/10/21 03:45:04;;;;;;;;;0.33;0.33;;;;;13.68;64.17;100242.31;5052519;28;45503;-71
2021/10/21 03:47:29;;;;;;;;;1.67;0.00;;;;;13.55;63.97;100228.34;5056775;28;45532;-72
2021/10/21 03:49:55;;;;;;;;;1.00;0.00;;;;;13.44;63.82;100235.53;5056683;28;57373;-72
2021/10/21 03:52:20;;;;;;;;;0.00;0.00;;;;;13.33;64.15;100248.00;5054153;28;45351;-72
2021/10/21 03:54:46;;;;;;;;;0.00;0.00;;;;;13.29;63.72;100254.22;5056581;28;45327;-72
2021/10/21 03:57:12;;;;;;;;;2.00;0.00;;;;;13.23;63.08;100275.50;5051951;28;46291;-72
2021/10/21 03:59:37;;;;;;;;;0.00;0.00;;;;;13.15;63.14;100264.03;5052772;28;46327;-71
2021/10/21 04:02:03;;;;;;;;;1.00;0.00;;;;;13.15;62.86;100293.19;5055255;28;45542;-72
2021/10/21 04:04:28;;;;;;;;;1.00;0.00;;;;;13.14;62.41;100294.97;5054253;28;45571;-72
2021/10/21 04:06:53;;;;;;;;;1.00;0.00;;;;;13.11;62.62;100327.69;5053154;28;45507;-72
2021/10/21 04:09:19;;;;;;;;;1.00;0.00;;;;;13.07;62.13;100320.66;5052004;28;59703;-71
2021/10/21 04:11:44;;;;;;;;;0.00;0.00;;;;;13.05;62.59;100326.88;5053819;28;54373;-71
2021/10/21 04:14:10;;;;;;;;;3.00;0.00;;;;;13.08;61.95;100334.78;5056861;28;55641;-71
2021/10/21 04:16:35;;;;;;;;;0.00;0.00;;;;;13.07;62.96;100333.03;5057337;28;45520;-72
2021/10/21 04:19:00;;;;;;;;;0.00;0.00;;;;;13.11;62.65;100354.19;5050876;28;61308;-72
2021/10/21 04:21:26;;;;;;;;;0.67;0.00;;;;;13.15;62.37;100351.50;5054381;28;55642;-72
2021/10/21 04:23:51;;;;;;;;;0.00;0.00;;;;;13.16;62.21;100346.22;5056242;28;53588;-72
2021/10/21 04:26:16;;;;;;;;;1.00;0.00;;;;;13.24;62.07;100378.88;5053083;28;45241;-72
2021/10/21 04:28:42;;;;;;;;;0.00;0.00;;;;;13.27;61.27;100364.75;5044983;28;45546;-73
2021/10/21 04:31:08;;;;;;;;;1.00;0.00;;;;;13.26;61.32;100379.75;5057766;28;45529;-72
2021/10/21 04:33:33;;;;;;;;;0.67;0.00;;;;;13.27;61.07;100388.59;5019203;28;50486;-72
2021/10/21 04:35:59;;;;;;;;;2.00;0.00;;;;;13.29;61.45;100381.50;5037271;28;54230;-72
2021/10/21 04:38:24;;;;;;;;;0.00;0.00;;;;;13.33;61.18;100402.69;5019504;28;57526;-72
2021/10/21 04:40:49;;;;;;;;;1.00;0.00;;;;;13.36;61.17;100401.75;5055167;28;45443;-72
2021/10/21 04:43:15;;;;;;;;;0.00;0.00;;;;;13.38;61.36;100405.31;5056821;28;55695;-72
2021/10/21 04:45:40;;;;;;;;;3.00;0.00;;;;;13.39;61.62;100430.06;5057748;28;45385;-72
2021/10/21 04:48:06;;;;;;;;;2.67;0.00;;;;;13.41;61.33;100421.19;5053547;28;45754;-72
2021/10/21 04:50:31;;;;;;;;;0.67;0.00;;;;;13.42;61.74;100452.09;5049797;28;45455;-72
2021/10/21 04:52:56;;;;;;;;;1.67;0.00;;;;;13.36;61.47;100437.13;5042495;28;52741;-72
2021/10/21 04:55:25;;;;;;;;;4.33;0.33;;;;;13.41;61.80;100454.78;5056494;28;45437;-72
2021/10/21 04:57:50;;;;;;;;;3.67;0.00;;;;;13.43;61.46;100455.66;5054257;28;46252;-72
2021/10/21 05:00:16;;;;;;;;;1.00;0.00;;;;;13.44;61.91;100466.25;5050184;28;45867;-72
2021/10/21 05:02:41;;;;;;;;;2.33;1.00;;;;;13.43;62.01;100472.47;5037336;28;45487;-71
2021/10/21 05:05:07;;;;;;;;;1.00;0.00;;;;;13.43;61.26;100501.63;5037230;28;45436;-71
2021/10/21 05:07:33;;;;;;;;;3.67;0.00;;;;;13.44;61.54;100498.09;5045116;28;45866;-71
2021/10/21 05:09:58;;;;;;;;;0.00;0.00;;;;;13.43;61.66;100509.59;5056538;28;45481;-71
2021/10/21 05:12:23;;;;;;;;;1.67;0.00;;;;;13.40;61.10;100520.19;5054874;28;51026;-71
2021/10/21 05:14:49;;;;;;;;;4.67;1.00;;;;;13.44;61.35;100524.59;5050802;28;45460;-72
2021/10/21 05:17:14;;;;;;;;;1.00;0.00;;;;;13.45;60.93;100528.13;5051497;28;46490;-72
2021/10/21 05:19:40;;;;;;;;;0.67;0.00;;;;;13.41;60.92;100519.31;5054374;28;48452;-72
2021/10/21 05:22:05;;;;;;;;;1.00;0.00;;;;;13.49;60.22;100544.03;5054968;28;48074;-72
2021/10/21 05:24:30;;;;;;;;;1.00;0.00;;;;;13.53;60.24;100550.16;5052615;28;51111;-72
2021/10/21 05:26:56;;;;;;;;;1.00;0.00;;;;;13.51;60.30;100547.53;5047900;28;48228;-72
2021/10/21 05:29:22;;;;;;;;;0.00;0.00;;;;;13.59;60.13;100569.63;5054331;28;45438;-71
2021/10/21 05:31:48;;;;;;;;;3.00;0.00;;;;;13.66;60.35;100574.88;5043958;28;45463;-72
2021/10/21 05:34:13;;;;;;;;;0.00;0.00;;;;;13.69;59.60;100575.75;5051394;28;45454;-74
2021/10/21 05:36:39;;;;;;;;;3.00;0.00;;;;;13.76;60.10;100573.94;5052658;28;61970;-74
2021/10/21 05:39:04;;;;;;;;;2.33;0.00;;;;;13.79;59.64;100574.78;5051795;28;45453;-74
2021/10/21 05:41:30;;;;;;;;;0.00;0.00;;;;;13.82;59.93;100574.78;5049336;28;49817;-72
2021/10/21 05:43:55;;;;;;;;;2.33;0.00;;;;;13.86;59.83;100580.94;5054753;28;45511;-72
2021/10/21 05:46:20;;;;;;;;;0.00;0.00;;;;;13.84;59.75;100575.63;5054616;28;46461;-71
2021/10/21 05:48:46;;;;;;;;;1.00;0.00;;;;;13.87;59.94;100582.72;5052268;28;45491;-72
2021/10/21 05:51:11;;;;;;;;;3.00;1.00;;;;;13.85;59.69;100588.03;5050899;28;51242;-73
2021/10/21 05:53:37;;;;;;;;;0.00;0.00;;;;;13.85;59.60;100603.97;5049722;28;50327;-74
2021/10/21 05:56:02;;;;;;;;;3.00;1.00;;;;;13.84;59.51;100596.00;5052930;28;60212;-73
2021/10/21 05:58:28;;;;;;;;;4.67;1.00;;;;;13.84;59.92;100594.22;5030870;28;45545;-72
2021/10/21 06:00:53;;;;;;;;;0.00;0.00;;;;;13.81;59.70;100590.72;5050976;28;45361;-72
2021/10/21 06:03:18;;;;;;;;;5.00;0.67;;;;;13.83;59.82;100607.50;5054159;28;45551;-71
2021/10/21 06:05:44;;;;;;;;;3.00;1.33;;;;;13.80;60.46;100600.44;5052988;28;57969;-73
2021/10/21 06:08:09;;;;;;;;;0.00;0.00;;;;;13.80;60.38;100603.09;5054772;28;45396;-72
2021/10/21 06:10:35;;;;;;;;;1.33;0.00;;;;;13.79;60.17;100613.72;5054530;28;51497;-73
2021/10/21 06:13:01;;;;;;;;;1.00;1.00;;;;;13.80;60.34;100602.22;5052673;28;52045;-72
2021/10/21 06:15:26;;;;;;;;;7.00;1.33;;;;;13.79;60.54;100605.75;5049235;28;46485;-72
2021/10/21 06:17:54;;;;;;;;;3.67;0.00;;;;;13.75;60.60;100606.69;5053140;28;45526;-74
2021/10/21 06:20:19;;;;;;;;;4.67;1.00;;;;;13.71;61.06;100602.28;5036036;28;45468;-71
2021/10/21 06:22:44;;;;;;;;;4.33;1.00;;;;;13.70;60.75;100603.16;5046337;28;45416;-72
2021/10/21 06:25:12;;;;;;;;;6.33;1.00;;;;;13.60;61.59;100611.16;5053107;28;46334;-72
2021/10/21 06:27:38;;;;;;;;;1.33;1.33;;;;;13.65;61.29;100632.38;5054257;28;45329;-72
2021/10/21 06:30:04;;;;;;;;;2.67;1.00;;;;;13.61;62.16;100617.34;5049675;28;45425;-72
2021/10/21 06:32:30;;;;;;;;;2.00;1.00;;;;;13.65;61.50;100628.84;5052421;28;45410;-71
2021/10/21 06:34:55;;;;;;;;;1.00;1.00;;;;;13.65;61.84;100621.75;5047930;28;59798;-71
2021/10/21 06:37:21;;;;;;;;;4.00;0.33;;;;;13.65;62.20;100620.88;5029928;28;54015;-72
2021/10/21 06:39:54;;;;;;;;;5.33;2.00;;;;;13.62;62.23;100632.38;5048435;28;45727;-70
2021/10/21 06:42:22;;;;;;;;;2.67;0.67;;;;;13.57;62.12;100615.59;5046873;28;45529;-72
2021/10/21 06:44:48;;;;;;;;;3.33;2.00;;;;;13.61;62.61;100630.63;5051494;28;46095;-72
2021/10/21 06:47:13;;;;;;;;;3.67;0.00;;;;;13.61;62.17;100639.44;5043956;28;45455;-71
2021/10/21 06:49:39;;;;;;;;;4.00;1.00;;;;;13.61;62.79;100644.75;5045722;28;55544;-70
2021/10/21 06:52:04;;;;;;;;;9.00;0.00;;;;;13.62;62.33;100696.94;5050176;28;49338;-71
2021/10/21 06:54:30;;;;;;;;;1.67;1.00;;;;;13.62;62.53;100662.44;5052312;28;46608;-71
2021/10/21 06:56:55;;;;;;;;;1.00;1.00;;;;;13.61;62.75;100650.06;5030637;28;46361;-74
2021/10/21 06:59:21;;;;;;;;;1.67;1.33;;;;;13.61;62.73;100649.19;5052244;28;45578;-74
2021/10/21 07:01:46;;;;;;;;;2.67;1.00;;;;;13.51;63.54;100668.69;5053227;28;45332;-74
2021/10/21 07:04:11;;;;;;;;;4.00;1.00;;;;;13.51;63.22;100677.50;5054086;28;46463;-74
2021/10/21 07:06:37;;;;;;;;;1.00;1.00;;;;;13.50;63.18;100678.41;5052676;28;57219;-73
2021/10/21 07:09:03;;;;;;;;;3.00;1.00;;;;;13.47;63.51;100673.09;5052511;28;47465;-75
2021/10/21 07:11:28;;;;;;;;;5.33;2.00;;;;;13.47;63.59;100685.47;5043430;28;45361;-75
2021/10/21 07:13:54;;;;;;;;;5.00;1.00;;;;;13.45;63.65;100696.09;5052123;28;47586;-75
2021/10/21 07:16:19;;;;;;;;;3.00;1.00;;;;;13.46;63.90;100692.56;5045395;28;45549;-76
2021/10/21 07:18:44;;;;;;;;;4.00;2.00;;;;;13.46;63.55;100697.88;5045234;28;46981;-76
2021/10/21 07:21:11;;;;;;;;;5.33;2.00;;;;;13.49;64.27;100681.06;5052616;28;45454;-75
2021/10/21 07:23:37;;;;;;;;;2.00;1.00;;;;;13.56;63.55;100691.66;5047020;28;46454;-74
2021/10/21 07:26:02;;;;;;;;;4.00;1.00;;;;;13.56;63.07;100710.22;5049369;28;53168;-74
2021/10/21 07:28:28;;;;;;;;;6.33;1.00;;;;;13.57;63.67;100709.31;5052385;28;55058;-74
2021/10/21 07:30:59;;;;;;;;;5.33;1.67;;;;;13.55;63.61;100708.47;5048162;28;45387;-75
2021/10/21 07:33:25;;;;;;;;;4.67;3.00;;;;;13.53;63.58;100704.03;5053339;28;46919;-75
2021/10/21 07:35:51;;;;;;;;;4.00;1.00;;;;;13.54;63.27;100727.03;5183295;22;46094;-75
2021/10/21 07:38:16;;;;;;;;;3.00;2.00;;;;;13.58;63.73;100720.81;5067122;28;53531;-74
2021/10/21 07:40:41;;;;;;;;;2.00;1.00;;;;;13.58;63.19;100726.13;5063731;28;46836;-73
2021/10/21 07:43:11;;;;;;;;;5.00;1.00;;;;;13.65;63.36;100735.84;5065353;28;45968;-73
2021/10/21 07:45:37;;;;;;;;;6.00;1.00;;;;;13.66;63.38;100745.56;5070273;28;45324;-73
2021/10/21 07:48:03;;;;;;;;;4.00;2.00;;;;;13.68;63.35;100757.03;5070581;28;45517;-74
2021/10/21 07:50:28;;;;;;;;;1.33;0.00;;;;;13.68;63.11;100757.03;5062433;28;45590;-73
2021/10/21 07:52:54;;;;;;;;;4.00;1.00;;;;;13.70;63.60;100757.94;5074342;28;47427;-73
2021/10/21 07:55:20;;;;;;;;;1.00;1.00;;;;;13.71;63.19;100770.31;5072105;28;45360;-75
2021/10/21 07:57:46;;;;;;;;;8.00;2.00;;;;;13.76;63.70;100770.31;5074545;28;46713;-75
2021/10/21 08:00:12;;;;;;;;;3.33;1.33;;;;;13.77;63.54;100759.69;5068059;28;45484;-74
2021/10/21 08:02:39;;;;;;;;;3.00;2.00;;;;;13.80;63.24;100775.59;5069181;28;46722;-73
2021/10/21 08:05:05;;;;;;;;;3.33;2.00;;;;;13.79;63.30;100775.59;5067655;28;45443;-74
2021/10/21 08:07:32;;;;;;;;;2.00;1.00;;;;;13.83;62.81;100790.63;5047802;28;45458;-73
2021/10/21 08:09:57;;;;;;;;;3.00;2.00;;;;;13.79;63.24;100792.38;5050497;28;45521;-73
2021/10/21 08:12:26;;;;;;;;;4.00;2.00;;;;;13.84;63.11;100792.38;5070124;28;46407;-73
2021/10/21 08:14:51;;;;;;;;;5.33;1.00;;;;;13.85;63.07;100796.81;5072800;28;45469;-72
2021/10/21 08:17:17;;;;;;;;;1.67;1.00;;;;;13.87;62.79;100798.56;5073208;28;53177;-73
2021/10/21 08:19:42;;;;;;;;;5.33;2.00;;;;;13.89;62.73;100799.44;5068924;28;46736;-73
2021/10/21 08:22:07;;;;;;;;;6.00;2.00;;;;;13.93;62.82;100797.66;5070750;28;56608;-73
2021/10/21 08:24:33;;;;;;;;;9.33;1.00;;;;;13.95;63.24;100800.31;5071546;28;52686;-74
2021/10/21 08:26:58;;;;;;;;;1.33;0.00;;;;;13.97;62.38;100799.44;5068215;28;45453;-73
2021/10/21 08:29:24;;;;;;;;;2.33;1.00;;;;;14.00;62.71;100796.75;5073485;28;45398;-74
2021/10/21 08:31:53;;;;;;;;;3.00;2.00;;;;;14.05;62.35;100800.28;5074466;28;46011;-74
2021/10/21 08:34:18;;;;;;;;;6.67;1.67;;;;;14.08;62.51;100800.28;5067302;28;45210;-74
2021/10/21 08:36:44;;;;;;;;;6.00;2.00;;;;;14.11;63.06;100799.38;5069523;28;45829;-73
2021/10/21 08:39:09;;;;;;;;;3.33;1.33;;;;;14.13;61.74;100798.50;5064407;28;46315;-73
2021/10/21 08:41:35;;;;;;;;;3.00;1.00;;;;;14.16;61.83;100803.75;5064124;28;46421;-73
2021/10/21 08:44:01;;;;;;;;;3.33;1.00;;;;;14.17;62.23;100807.34;5067864;28;45471;-73
2021/10/21 08:46:27;;;;;;;;;1.33;1.00;;;;;14.21;62.14;100808.19;5072324;28;45509;-74
2021/10/21 08:49:04;;;;;;;;;4.67;3.00;;;;;14.25;61.84;100815.25;5066052;28;46875;-73
2021/10/21 08:51:30;;;;;;;;;16.00;11.33;;;;;14.29;61.68;100809.94;5072704;28;47337;-72
2021/10/21 08:53:55;;;;;;;;;21.00;11.00;;;;;14.33;61.52;100809.03;5066482;28;45290;-71
2021/10/21 08:56:25;;;;;;;;;5.67;2.67;;;;;14.38;61.83;100816.94;5070198;28;45872;-71
2021/10/21 08:58:51;;;;;;;;;1.00;1.00;;;;;14.42;61.01;100805.44;5075068;28;45457;-71
2021/10/21 09:01:24;;;;;;;;;5.67;1.67;;;;;14.47;61.06;100798.34;5052283;28;46849;-72
2021/10/21 09:04:01;;;;;;;;;4.00;2.33;;;;;14.53;61.04;100803.63;5072266;28;45431;-71
2021/10/21 09:09:19;;;;;;;;;1.00;1.00;;;;;14.70;60.66;100794.66;5075177;28;45533;-71
2021/10/21 09:11:46;;;;;;;;;3.00;2.00;;;;;14.73;59.90;100813.25;5068837;28;46540;-70
2021/10/21 09:14:12;;;;;;;;;19.00;11.33;;;;;14.75;60.47;100819.44;5073407;28;45617;-71
2021/10/21 09:16:39;;;;;;;;;5.00;1.00;;;;;14.81;60.06;100814.09;5061371;28;45567;-71
2021/10/21 09:19:08;;;;;;;;;5.00;1.67;;;;;14.80;60.32;100813.19;5051951;28;45331;-71
2021/10/21 09:21:35;;;;;;;;;8.00;1.00;;;;;14.89;59.34;100812.25;5073958;28;45431;-71
2021/10/21 09:24:22;;;;;;;;;2.33;1.33;;;;;14.91;59.18;100810.47;5053961;28;45668;-71
2021/10/21 09:27:07;;;;;;;;;4.00;0.33;;;;;14.92;59.50;100815.78;5068442;28;45331;-71
2021/10/21 09:29:34;;;;;;;;;1.00;1.00;;;;;14.94;59.43;100808.69;5066618;28;45626;-71
2021/10/21 09:32:03;;;;;;;;;4.33;1.00;;;;;15.00;59.59;100806.88;5071995;28;47463;-71
2021/10/21 09:34:29;;;;;;;;;7.33;1.00;;;;;15.09;59.36;100813.00;5070502;28;45458;-71
2021/10/21 09:36:54;;;;;;;;;4.00;1.00;;;;;15.25;58.77;100816.41;5069849;28;47974;-71
2021/10/21 09:39:20;;;;;;;;;1.00;1.00;;;;;15.36;58.43;100813.66;5053370;28;45532;-71
2021/10/21 09:41:45;;;;;;;;;5.00;1.00;;;;;15.47;58.02;100806.47;5069958;28;59511;-71
2021/10/21 09:44:23;;;;;;;;;3.00;0.00;;;;;15.53;57.86;100800.19;5072958;28;57661;-71
2021/10/21 09:46:48;;;;;;;;;3.00;1.00;;;;;15.45;57.99;100795.84;5068150;27;45440;-71
2021/10/21 09:49:15;;;;;;;;;3.00;0.00;;;;;15.50;57.85;100800.22;5070153;28;46809;-71
2021/10/21 09:51:41;;;;;;;;;2.00;1.00;;;;;15.51;58.26;100794.03;5070955;27;45732;-72
2021/10/21 09:54:06;;;;;;;;;3.67;0.00;;;;;15.55;57.58;100807.25;5055248;28;60968;-71
2021/10/21 09:57:00;;;;;;;;;3.00;0.00;;;;;15.51;58.06;100800.22;5064962;28;51367;-71
2021/10/21 09:59:34;;;;;;;;;0.67;0.33;;;;;15.52;57.81;100799.31;5056816;28;45564;-71
2021/10/21 10:02:16;;;;;;;;;1.00;1.00;;;;;15.65;57.47;100824.06;5050618;28;45622;-71
2021/10/21 10:04:45;;;;;;;;;1.33;1.00;;;;;15.71;57.44;100814.25;5070124;28;45536;-71
2021/10/21 10:07:11;;;;;;;;;1.33;1.33;;;;;15.81;57.43;100817.69;5050977;28;45551;-71
2021/10/21 10:09:36;;;;;;;;;4.33;1.33;;;;;15.93;56.56;100817.56;5069199;28;45501;-71
2021/10/21 10:12:04;;;;;;;;;4.67;3.00;;;;;16.00;56.49;100805.06;5071117;28;46339;-72
2021/10/21 10:14:29;;;;;;;;;1.33;0.33;;;;;16.16;56.86;100806.63;5074133;28;45200;-72
2021/10/21 10:16:58;;;;;;;;;2.33;0.00;;;;;16.26;56.57;100810.06;5051424;28;45446;-72
2021/10/21 10:19:24;;;;;;;;;0.33;0.33;;;;;16.37;56.05;100812.59;5071792;28;45651;-71
2021/10/21 10:21:51;;;;;;;;;1.67;1.00;;;;;16.46;56.11;100800.03;5052949;28;46658;-72
2021/10/21 10:24:16;;;;;;;;;4.33;1.00;;;;;16.61;56.20;100822.03;5055884;28;45597;-71
2021/10/21 10:26:48;;;;;;;;;2.67;1.67;;;;;16.71;55.34;100803.25;5039268;28;53588;-70
2021/10/21 10:29:18;;;;;;;;;4.00;2.00;;;;;16.81;55.72;100820.00;5076361;28;45544;-70
2021/10/21 10:31:47;;;;;;;;;7.67;3.33;;;;;16.87;54.91;100811.03;5033704;28;45827;-71
2021/10/21 10:34:35;;;;;;;;;6.67;3.00;;;;;17.01;55.44;100806.38;5072155;28;45675;-72
2021/10/21 10:37:12;;;;;;;;;6.00;2.00;;;;;17.08;55.00;100800.00;5067702;28;45773;-72
2021/10/21 10:39:58;;;;;;;;;4.00;1.00;;;;;17.10;54.54;100807.97;5074009;28;45489;-72
2021/10/21 10:42:30;;;;;;;;;3.67;1.00;;;;;17.07;54.58;100806.25;5074583;28;45981;-72
2021/10/21 10:44:56;;;;;;;;;4.00;2.00;;;;;17.02;54.66;100803.66;5068988;28;45476;-71
2021/10/21 10:47:37;;;;;;;;;6.00;1.00;;;;;16.96;55.60;100826.88;5055587;28;46477;-71
2021/10/21 10:50:03;;;;;;;;;3.33;1.00;;;;;16.87;56.54;100827.91;5074581;28;45466;-71
2021/10/21 10:52:44;;;;;;;;;2.33;1.00;;;;;16.76;57.08;100805.84;5056956;28;47174;-72
2021/10/21 10:55:23;;;;;;;;;1.33;1.33;;;;;16.76;57.63;100830.72;5073553;28;45651;-71
2021/10/21 10:57:49;;;;;;;;;3.00;1.00;;;;;16.71;58.40;100829.03;5072151;28;45645;-72
2021/10/21 11:00:39;;;;;;;;;4.00;1.00;;;;;16.70;58.80;100832.56;5070119;28;45367;-72
2021/10/21 11:03:08;;;;;;;;;5.00;2.00;;;;;16.65;58.91;100819.31;5075334;28;46556;-72
2021/10/21 11:05:42;;;;;;;;;5.00;1.00;;;;;16.63;58.81;100817.56;5074670;28;45595;-71
2021/10/21 11:08:07;;;;;;;;;5.33;1.67;;;;;16.64;59.59;100827.31;5074534;28;45546;-71
2021/10/21 11:10:43;;;;;;;;;3.67;2.00;;;;;16.68;59.52;100810.41;5058602;28;55494;-71
2021/10/21 11:13:31;;;;;;;;;5.33;4.00;;;;;16.76;59.79;100812.06;5074386;28;47509;-71
2021/10/21 11:15:57;;;;;;;;;4.00;3.00;;;;;16.79;60.33;100818.28;5060908;28;45415;-71
2021/10/21 11:18:48;;;;;;;;;1.67;1.67;;;;;16.73;60.53;100813.91;5072497;28;45585;-71
2021/10/21 11:21:45;;;;;;;;;5.33;1.67;;;;;16.63;61.07;100823.78;5060795;28;45545;-71
2021/10/21 11:24:10;;;;;;;;;6.67;2.00;;;;;16.55;62.75;100812.34;5068846;28;45490;-70
2021/10/21 11:26:35;;;;;;;;;2.33;2.00;;;;;16.41;62.51;100815.19;5075512;28;45489;-71
2021/10/21 11:29:01;;;;;;;;;4.00;1.00;;;;;16.29;63.52;100810.00;5057219;28;55245;-72